Time;durP1;ratioP1;P1;durP2;ratioP2;P2;SDS_P1;SDS_P2;PMS_P1;PMS_P2;Temp;Humidity;BMP_temperature;BMP_pressure;BME280_temperature;BME280_humidity;BME280_pressure;Samples;Min_cycle;Max_cycle;Signal;HPM_P1;HPM_P2
2022/10/15 05:59:41;;;;;;;;;;;12.10;99.90;;;;;;6213664;22;19919;-74
2022/10/15 06:02:34;;;;;;;;;;;12.10;99.90;;;;;;6194747;23;19915;-79
2022/10/15 06:05:06;;;;;;;;;;;12.10;99.90;;;;;;6194419;23;19916;-80
2022/10/15 06:14:36;;;;;;;;;;;;;;;;;;;;;
2022/10/15 06:17:52;;;;;;;;;;;12.10;99.90;;;;;;5990843;23;20433;-77
2022/10/15 06:24:15;;;;;;;;;;;12.10;99.90;;;;;;6008165;23;20475;-77
2022/10/15 06:40:56;;;;;;;;;;;12.40;99.90;;;;;;5953377;23;19926;-79
2022/10/15 07:04:37;;;;;;;;;;;12.40;99.90;;;;;;5982172;24;19945;-79
2022/10/15 07:15:06;;;;;;;;;;;;;;;;;;;;;
2022/10/15 07:18:59;;;;;;;;;;;;;;;;;;;;;
2022/10/15 07:21:39;;;;;;;;;;;12.60;99.90;;;;;;5971669;24;19959;-75
2022/10/15 07:24:35;;;;;;;;;;;12.60;99.90;;;;;;6023325;23;20368;-77
2022/10/15 07:48:15;;;;;;;;;;;12.90;99.90;;;;;;6124932;23;20347;-76
2022/10/15 08:05:24;;;;;;;;;;;13.00;99.90;;;;;;6066063;23;19914;-78
2022/10/15 08:07:49;;;;;;;;;;;13.00;99.90;;;;;;6043008;23;19914;-76
2022/10/15 08:10:15;;;;;;;;;;;12.90;99.90;;;;;;6122239;23;19916;-77
2022/10/15 08:12:41;;;;;;;;;;;13.00;99.90;;;;;;6134918;23;20346;-77
2022/10/15 08:15:07;;;;;;;;;;;12.90;99.90;;;;;;6134925;23;19919;-77
2022/10/15 08:17:32;;;;;;;;;;;12.90;99.90;;;;;;6159180;23;19916;-77
2022/10/15 08:19:58;;;;;;;;;;;13.00;99.90;;;;;;6159233;23;19919;-77
2022/10/15 08:22:23;;;;;;;;;;;13.00;99.90;;;;;;6134789;23;19916;-76
2022/10/15 08:24:49;;;;;;;;;;;13.10;99.90;;;;;;6134938;23;19912;-75
2022/10/15 08:27:15;;;;;;;;;;;13.20;99.90;;;;;;6134667;23;19912;-80
2022/10/15 08:29:41;;;;;;;;;;;13.30;99.90;;;;;;6159085;23;20343;-77
2022/10/15 08:32:07;;;;;;;;;;;13.40;99.90;;;;;;6134769;23;19912;-74
2022/10/15 08:34:32;;;;;;;;;;;13.40;99.90;;;;;;6159312;23;19912;-77
2022/10/15 08:36:58;;;;;;;;;;;13.40;99.90;;;;;;6182522;23;19923;-75
2022/10/15 08:39:23;;;;;;;;;;;13.40;99.90;;;;;;6184903;23;19916;-74
2022/10/15 08:41:49;;;;;;;;;;;13.40;99.90;;;;;;6185366;23;19951;-79
2022/10/15 08:44:20;;;;;;;;;;;13.40;99.90;;;;;;6159902;23;19974;-73
2022/10/15 08:46:47;;;;;;;;;;;13.50;99.90;;;;;;6184830;23;19920;-77
2022/10/15 08:49:21;;;;;;;;;;;13.50;99.90;;;;;;6160052;23;19916;-78
2022/10/15 08:51:51;;;;;;;;;;;13.40;99.90;;;;;;6160733;23;19912;-74
2022/10/15 08:54:17;;;;;;;;;;;13.50;99.90;;;;;;6160024;23;19919;-73
2022/10/15 08:56:45;;;;;;;;;;;13.50;99.90;;;;;;6179891;23;19916;-72
2022/10/15 08:59:27;;;;;;;;;;;13.40;99.90;;;;;;6214917;23;20341;-76
2022/10/15 09:01:58;;;;;;;;;;;13.60;99.90;;;;;;6190505;23;19951;-75
2022/10/15 09:04:40;;;;;;;;;;;13.60;99.90;;;;;;6189944;23;20286;-82
2022/10/15 09:07:12;;;;;;;;;;;13.60;99.90;;;;;;6189567;23;20290;-78
2022/10/15 09:09:46;;;;;;;;;;;13.60;99.90;;;;;;6189938;23;19919;-77
2022/10/15 09:12:14;;;;;;;;;;;13.70;99.90;;;;;;6189953;23;19912;-77
2022/10/15 09:14:41;;;;;;;;;;;13.70;99.90;;;;;;6189832;23;19912;-78
2022/10/15 09:17:36;;;;;;;;;;;13.60;99.90;;;;;;6190109;23;20222;-78
2022/10/15 09:20:31;;;;;;;;;;;13.50;99.90;;;;;;6181523;23;19988;-78
2022/10/15 09:22:56;;;;;;;;;;;13.60;99.90;;;;;;6169894;23;19916;-79
2022/10/15 09:25:33;;;;;;;;;;;13.70;99.90;;;;;;6189786;23;19943;-80
2022/10/15 09:28:00;;;;;;;;;;;13.70;99.90;;;;;;6189390;23;19934;-76
2022/10/15 09:30:32;;;;;;;;;;;13.70;99.90;;;;;;6189248;23;19911;-79
2022/10/15 09:33:02;;;;;;;;;;;13.80;99.90;;;;;;6189407;23;19912;-75
2022/10/15 09:35:29;;;;;;;;;;;13.80;99.90;;;;;;6214645;23;19912;-78
2022/10/15 09:38:03;;;;;;;;;;;13.80;99.90;;;;;;6189756;23;19912;-75
2022/10/15 09:40:38;;;;;;;;;;;13.70;99.90;;;;;;6214732;23;19983;-73
2022/10/15 09:43:04;;;;;;;;;;;13.70;99.90;;;;;;6214623;23;19922;-74
2022/10/15 09:45:30;;;;;;;;;;;13.60;99.90;;;;;;6214742;23;19966;-72
2022/10/15 09:47:59;;;;;;;;;;;13.70;99.90;;;;;;6214859;23;20319;-76
2022/10/15 09:50:34;;;;;;;;;;;13.60;99.90;;;;;;6215427;23;19962;-75
2022/10/15 09:53:03;;;;;;;;;;;13.60;99.90;;;;;;6215227;23;19923;-74
2022/10/15 09:55:41;;;;;;;;;;;13.70;99.90;;;;;;6193988;23;20270;-73
2022/10/15 09:58:13;;;;;;;;;;;13.70;99.90;;;;;;6196786;23;19916;-75
2022/10/15 10:00:56;;;;;;;;;;;13.60;99.90;;;;;;6221705;23;19922;-71
2022/10/15 10:03:23;;;;;;;;;;;13.60;99.90;;;;;;6222020;23;19915;-73
2022/10/15 10:05:49;;;;;;;;;;;13.60;99.90;;;;;;6222044;23;19994;-73
2022/10/15 10:08:20;;;;;;;;;;;13.70;99.90;;;;;;6196823;23;20018;-78
2022/10/15 10:10:59;;;;;;;;;;;13.70;99.90;;;;;;6196309;23;20310;-78
2022/10/15 10:13:29;;;;;;;;;;;13.90;99.90;;;;;;6196738;23;19911;-79
2022/10/15 10:16:19;;;;;;;;;;;13.90;99.90;;;;;;6196367;23;19916;-82
2022/10/15 10:19:05;;;;;;;;;;;14.00;99.90;;;;;;6197341;23;19935;-76
2022/10/15 10:21:32;;;;;;;;;;;14.10;99.90;;;;;;6196640;23;19989;-71
2022/10/15 10:24:16;;;;;;;;;;;14.10;99.90;;;;;;6221808;23;19954;-75
2022/10/15 10:26:42;;;;;;;;;;;14.10;99.90;;;;;;6221373;23;19911;-75
2022/10/15 10:29:15;;;;;;;;;;;14.10;99.90;;;;;;6221783;23;19917;-71
2022/10/15 10:31:42;;;;;;;;;;;14.10;99.90;;;;;;6221158;23;19920;-72
2022/10/15 10:34:13;;;;;;;;;;;14.10;99.90;;;;;;6220011;23;20341;-72
2022/10/15 10:36:38;;;;;;;;;;;14.00;99.90;;;;;;6245906;23;20211;-72
2022/10/15 10:39:04;;;;;;;;;;;14.00;99.90;;;;;;6195700;23;19919;-76
2022/10/15 10:41:49;;;;;;;;;;;14.10;99.90;;;;;;6220817;23;19918;-73
2022/10/15 10:44:19;;;;;;;;;;;14.20;99.90;;;;;;6195874;23;20237;-73
2022/10/15 10:46:59;;;;;;;;;;;14.20;99.90;;;;;;6196275;23;19931;-74
2022/10/15 10:49:32;;;;;;;;;;;14.20;99.90;;;;;;6221058;23;19916;-76
2022/10/15 10:51:58;;;;;;;;;;;14.30;99.90;;;;;;6221356;23;19955;-75
2022/10/15 10:54:24;;;;;;;;;;;14.20;99.90;;;;;;6196395;23;19969;-75
2022/10/15 10:56:52;;;;;;;;;;;14.20;99.90;;;;;;6220783;23;19915;-75
2022/10/15 10:59:31;;;;;;;;;;;14.20;99.90;;;;;;6196343;23;19915;-75
2022/10/15 11:01:57;;;;;;;;;;;14.40;99.90;;;;;;6196496;23;19922;-74
2022/10/15 11:04:27;;;;;;;;;;;14.40;99.90;;;;;;6221503;23;19915;-73
2022/10/15 11:06:53;;;;;;;;;;;14.50;99.90;;;;;;6196415;23;19919;-76
2022/10/15 11:09:37;;;;;;;;;;;14.50;99.90;;;;;;6195383;23;19958;-74
2022/10/15 11:12:06;;;;;;;;;;;14.70;99.90;;;;;;6196227;23;19911;-75
2022/10/15 11:14:50;;;;;;;;;;;14.80;99.90;;;;;;6220853;23;19958;-75
2022/10/15 11:17:20;;;;;;;;;;;14.80;99.90;;;;;;6196213;23;19923;-74
2022/10/15 11:20:01;;;;;;;;;;;14.90;99.90;;;;;;6195671;23;20342;-75
2022/10/15 11:22:26;;;;;;;;;;;14.90;99.90;;;;;;6196217;23;19982;-76
2022/10/15 11:25:11;;;;;;;;;;;15.00;99.90;;;;;;6196530;23;19912;-75
2022/10/15 11:27:39;;;;;;;;;;;15.20;99.90;;;;;;6220775;23;20277;-71
2022/10/15 11:30:27;;;;;;;;;;;15.30;99.90;;;;;;6220630;23;19984;-76
2022/10/15 11:32:56;;;;;;;;;;;15.40;99.90;;;;;;6196049;23;19923;-74
2022/10/15 11:35:37;;;;;;;;;;;15.40;99.90;;;;;;6196212;23;19918;-73
2022/10/15 11:38:18;;;;;;;;;;;15.40;99.90;;;;;;6220626;23;19916;-77
2022/10/15 11:40:46;;;;;;;;;;;15.40;99.90;;;;;;6195847;23;19975;-73
2022/10/15 11:43:27;;;;;;;;;;;15.40;99.90;;;;;;6195538;23;20038;-73
2022/10/15 11:46:16;;;;;;;;;;;15.40;99.90;;;;;;6220774;23;20393;-72
2022/10/15 11:49:00;;;;;;;;;;;15.40;99.90;;;;;;6195540;22;19997;-72
2022/10/15 11:51:33;;;;;;;;;;;15.40;99.90;;;;;;6195622;23;20229;-73
2022/10/15 11:53:58;;;;;;;;;;;15.40;99.90;;;;;;6195453;23;19916;-72
2022/10/15 11:56:27;;;;;;;;;;;15.40;99.90;;;;;;6220311;23;20222;-71
2022/10/15 11:58:55;;;;;;;;;;;15.50;99.90;;;;;;6195564;22;19911;-72
2022/10/15 12:01:26;;;;;;;;;;;15.60;99.90;;;;;;6247721;23;19919;-73
2022/10/15 12:03:54;;;;;;;;;;;15.70;99.90;;;;;;6220937;23;20276;-72
2022/10/15 12:06:21;;;;;;;;;;;15.80;99.90;;;;;;6220723;23;20008;-71
2022/10/15 12:08:47;;;;;;;;;;;15.80;99.90;;;;;;6220760;22;19915;-73
2022/10/15 12:11:37;;;;;;;;;;;15.90;99.90;;;;;;6220886;23;19916;-72
2022/10/15 12:14:12;;;;;;;;;;;16.00;99.90;;;;;;6220912;23;19965;-72
2022/10/15 12:16:50;;;;;;;;;;;16.20;99.90;;;;;;6220725;23;19971;-72
2022/10/15 12:19:33;;;;;;;;;;;16.30;99.90;;;;;;6195643;23;20239;-74
2022/10/15 12:22:05;;;;;;;;;;;16.20;99.90;;;;;;6220725;23;19916;-73
2022/10/15 12:24:37;;;;;;;;;;;16.30;99.90;;;;;;6220230;23;19994;-72
2022/10/15 12:27:22;;;;;;;;;;;16.10;99.90;;;;;;6220625;23;19916;-73
2022/10/15 12:29:49;;;;;;;;;;;16.10;99.90;;;;;;6220678;23;20018;-73
2022/10/15 12:32:25;;;;;;;;;;;16.10;99.90;;;;;;6220169;23;19919;-73
2022/10/15 12:34:58;;;;;;;;;;;16.20;99.90;;;;;;6195248;23;19919;-72
2022/10/15 12:37:26;;;;;;;;;;;16.10;99.90;;;;;;6195143;23;19915;-74
2022/10/15 12:39:57;;;;;;;;;;;16.10;99.90;;;;;;6199033;23;19990;-71
2022/10/15 12:42:30;;;;;;;;;;;16.00;99.90;;;;;;6202777;23;19946;-71
2022/10/15 12:44:58;;;;;;;;;;;16.00;99.90;;;;;;6227852;23;20256;-73
2022/10/15 12:47:42;;;;;;;;;;;16.00;99.90;;;;;;6227520;23;19919;-71
2022/10/15 12:50:15;;;;;;;;;;;15.90;99.90;;;;;;6220574;23;19919;-71
2022/10/15 12:52:55;;;;;;;;;;;15.80;99.90;;;;;;6195602;23;19969;-70
2022/10/15 12:55:22;;;;;;;;;;;15.80;99.90;;;;;;6220210;23;19915;-73
2022/10/15 12:57:54;;;;;;;;;;;15.70;99.90;;;;;;6220296;23;19916;-75
2022/10/15 13:00:31;;;;;;;;;;;15.70;99.90;;;;;;6195359;23;19915;-74
2022/10/15 13:03:06;;;;;;;;;;;15.70;99.90;;;;;;6195237;23;20237;-73
2022/10/15 13:05:33;;;;;;;;;;;15.70;99.90;;;;;;6220325;23;19915;-73
2022/10/15 13:08:00;;;;;;;;;;;15.60;99.90;;;;;;6219806;23;19916;-76
2022/10/15 13:10:31;;;;;;;;;;;15.60;99.90;;;;;;6220455;23;19916;-74
2022/10/15 13:13:00;;;;;;;;;;;15.50;99.90;;;;;;6195006;23;19973;-73
2022/10/15 13:15:26;;;;;;;;;;;15.50;99.90;;;;;;6195472;23;19966;-73
2022/10/15 13:17:56;;;;;;;;;;;15.40;99.90;;;;;;6246923;23;20310;-75
2022/10/15 13:20:28;;;;;;;;;;;15.30;99.90;;;;;;6220225;23;19915;-74
2022/10/15 13:23:06;;;;;;;;;;;15.30;99.90;;;;;;6220225;23;19920;-75
2022/10/15 13:25:32;;;;;;;;;;;15.20;99.90;;;;;;6195235;23;20299;-75
2022/10/15 13:27:57;;;;;;;;;;;15.20;99.90;;;;;;6194890;23;20226;-75
2022/10/15 13:30:23;;;;;;;;;;;15.10;99.90;;;;;;6219489;23;19915;-78
2022/10/15 13:32:50;;;;;;;;;;;15.10;99.90;;;;;;6194443;23;19911;-75
2022/10/15 13:35:36;;;;;;;;;;;15.20;99.90;;;;;;6194991;23;19919;-74
2022/10/15 13:38:03;;;;;;;;;;;15.10;99.90;;;;;;6218815;23;19922;-74
2022/10/15 13:40:30;;;;;;;;;;;15.10;99.90;;;;;;6195274;23;19912;-73
2022/10/15 13:43:03;;;;;;;;;;;15.00;99.90;;;;;;6219620;23;20314;-75
2022/10/15 13:45:29;;;;;;;;;;;15.10;99.90;;;;;;6195199;23;19911;-76
2022/10/15 13:47:55;;;;;;;;;;;15.00;99.90;;;;;;6220062;23;19916;-76
2022/10/15 13:50:26;;;;;;;;;;;15.00;99.90;;;;;;6195015;23;19954;-75
2022/10/15 13:53:00;;;;;;;;;;;15.00;99.90;;;;;;6219701;23;20242;-72
2022/10/15 13:55:32;;;;;;;;;;;15.00;99.90;;;;;;6194349;23;19912;-70
2022/10/15 13:57:59;;;;;;;;;;;15.00;99.90;;;;;;6220032;23;19923;-71
2022/10/15 14:00:30;;;;;;;;;;;15.10;99.90;;;;;;6219460;23;19911;-69
2022/10/15 14:03:25;;;;;;;;;;;15.10;99.90;;;;;;6194444;23;20310;-72
2022/10/15 14:05:52;;;;;;;;;;;15.10;99.90;;;;;;6169869;23;19915;-72
2022/10/15 14:08:25;;;;;;;;;;;15.10;99.90;;;;;;6220034;23;19965;-72
2022/10/15 14:10:53;;;;;;;;;;;15.00;99.90;;;;;;6219717;23;19915;-71
2022/10/15 14:13:18;;;;;;;;;;;15.10;99.90;;;;;;6219963;23;20364;-72
2022/10/15 14:16:01;;;;;;;;;;;15.00;99.90;;;;;;6219892;23;19998;-73
2022/10/15 14:18:29;;;;;;;;;;;14.90;99.90;;;;;;6220208;23;20033;-71
2022/10/15 14:20:55;;;;;;;;;;;14.90;99.90;;;;;;6219310;23;19916;-72
2022/10/15 14:23:24;;;;;;;;;;;14.90;99.90;;;;;;6219979;23;20000;-73
2022/10/15 14:25:58;;;;;;;;;;;14.90;99.90;;;;;;6194765;23;19919;-72
2022/10/15 14:28:24;;;;;;;;;;;14.90;99.90;;;;;;6246822;23;19986;-72
2022/10/15 14:30:49;;;;;;;;;;;14.90;99.90;;;;;;6219560;23;20345;-72
2022/10/15 14:33:34;;;;;;;;;;;14.90;99.90;;;;;;6219944;23;19916;-73
2022/10/15 14:36:10;;;;;;;;;;;14.90;99.90;;;;;;6194334;23;19915;-72
2022/10/15 14:38:36;;;;;;;;;;;14.90;99.90;;;;;;6219528;23;19923;-71
2022/10/15 14:41:22;;;;;;;;;;;14.90;99.90;;;;;;6194584;23;19916;-72
2022/10/15 14:44:00;;;;;;;;;;;14.90;99.90;;;;;;6221073;23;20225;-74
2022/10/15 14:46:30;;;;;;;;;;;14.90;99.90;;;;;;6196636;23;19923;-72
2022/10/15 14:48:56;;;;;;;;;;;15.00;99.90;;;;;;6195921;22;19923;-71
2022/10/15 14:51:23;;;;;;;;;;;15.10;99.90;;;;;;6221420;23;19916;-72
2022/10/15 14:53:49;;;;;;;;;;;15.10;99.90;;;;;;6196304;23;19969;-71
2022/10/15 14:59:55;;;;;;;;;;;15.20;99.90;;;;;;6216714;23;19911;-76
2022/10/15 15:02:22;;;;;;;;;;;15.10;99.90;;;;;;6189202;23;19918;-73
2022/10/15 15:05:15;;;;;;;;;;;15.20;99.90;;;;;;6190141;23;19911;-72
2022/10/15 15:07:40;;;;;;;;;;;15.20;99.90;;;;;;6189866;23;20234;-74
2022/10/15 15:10:07;;;;;;;;;;;15.10;99.90;;;;;;6189919;23;19964;-74
2022/10/15 15:12:33;;;;;;;;;;;15.10;99.90;;;;;;6190016;23;20234;-73
2022/10/15 15:14:59;;;;;;;;;;;15.00;99.90;;;;;;6190022;23;19916;-74
2022/10/15 15:17:26;;;;;;;;;;;15.00;99.90;;;;;;6214838;23;19996;-73
2022/10/15 15:19:53;;;;;;;;;;;15.00;99.90;;;;;;6189832;23;19927;-73
2022/10/15 15:22:27;;;;;;;;;;;15.00;99.90;;;;;;6189835;23;19990;-72
2022/10/15 15:24:52;;;;;;;;;;;15.00;99.90;;;;;;6189898;23;19947;-73
2022/10/15 15:27:23;;;;;;;;;;;15.00;99.90;;;;;;6189608;23;20261;-75
2022/10/15 15:29:48;;;;;;;;;;;15.00;99.90;;;;;;6189598;23;19972;-71
2022/10/15 15:32:14;;;;;;;;;;;15.00;99.90;;;;;;6215056;23;19915;-75
2022/10/15 15:34:40;;;;;;;;;;;15.00;99.90;;;;;;6189735;23;20074;-72
2022/10/15 15:37:16;;;;;;;;;;;15.00;99.90;;;;;;6214530;23;19916;-72
2022/10/15 15:39:42;;;;;;;;;;;15.00;99.90;;;;;;6190101;23;19923;-72
2022/10/15 15:42:10;;;;;;;;;;;14.80;99.90;;;;;;6216106;23;19916;-74
2022/10/15 15:44:39;;;;;;;;;;;14.80;99.90;;;;;;6191378;23;19925;-74
2022/10/15 15:47:05;;;;;;;;;;;14.80;99.90;;;;;;6190842;23;19916;-76
2022/10/15 15:49:30;;;;;;;;;;;14.70;99.90;;;;;;6190778;23;19916;-74
2022/10/15 15:51:56;;;;;;;;;;;14.70;99.90;;;;;;6190905;23;19923;-76
2022/10/15 15:54:22;;;;;;;;;;;14.60;99.90;;;;;;6217107;23;19962;-73
2022/10/15 15:56:54;;;;;;;;;;;14.60;99.90;;;;;;6190050;23;19915;-74
2022/10/15 16:05:58;;;;;;;;;;;;;;;;;;;;;
2022/10/15 16:08:53;;;;;;;;;;;14.40;99.90;;;;;;6214717;23;20315;-74
2022/10/15 16:28:00;;;;;;;;;;;14.00;99.90;;;;;;6308296;22;20237;-75
2022/10/15 16:40:44;;;;;;;;;;;13.80;99.90;;;;;;6247514;22;20280;-74
2022/10/15 16:59:50;;;;;;;;;;;13.40;99.90;;;;;;6237490;23;20270;-75
2022/10/15 17:02:15;;;;;;;;;;;13.40;99.90;;;;;;6190271;23;19916;-74
2022/10/15 17:04:41;;;;;;;;;;;13.30;99.90;;;;;;6165421;23;19916;-71
2022/10/15 17:07:22;;;;;;;;;;;13.20;99.90;;;;;;6164370;23;19916;-75
2022/10/15 17:09:55;;;;;;;;;;;13.20;99.90;;;;;;6189921;23;20315;-75
2022/10/15 17:12:27;;;;;;;;;;;13.10;99.90;;;;;;6190020;23;19964;-75
2022/10/15 17:15:16;;;;;;;;;;;13.00;99.90;;;;;;6167617;23;19986;-75
2022/10/15 17:17:54;;;;;;;;;;;12.90;99.90;;;;;;6189611;23;19916;-77
2022/10/15 17:20:22;;;;;;;;;;;12.90;99.90;;;;;;6164954;23;19951;-74
2022/10/15 17:22:48;;;;;;;;;;;12.80;99.90;;;;;;6165064;23;20226;-78
2022/10/15 17:32:04;;;;;;;;;;;12.70;99.90;;;;;;6218240;23;19954;-76
2022/10/15 17:34:29;;;;;;;;;;;12.60;99.90;;;;;;6189200;23;19991;-74
2022/10/15 17:37:20;;;;;;;;;;;;;;;;;;;;;
2022/10/15 17:40:07;;;;;;;;;;;12.50;99.90;;;;;;6189222;23;19912;-78
2022/10/15 17:42:47;;;;;;;;;;;12.50;99.90;;;;;;6189674;23;20364;-77
2022/10/15 17:59:04;;;;;;;;;;;12.40;99.90;;;;;;6086431;23;20003;-73
2022/10/15 18:01:34;;;;;;;;;;;12.30;99.90;;;;;;6207557;23;19955;-74
2022/10/15 18:04:00;;;;;;;;;;;12.30;99.90;;;;;;6189216;23;19951;-74
2022/10/15 18:06:29;;;;;;;;;;;12.20;99.90;;;;;;6189545;23;19986;-77
2022/10/15 18:09:22;;;;;;;;;;;;;;;;;;;;;
2022/10/15 18:12:28;;;;;;;;;;;12.20;99.90;;;;;;6123261;23;19975;-70
2022/10/15 18:23:53;;;;;;;;;;;12.10;99.90;;;;;;6291351;22;19914;-74
2022/10/15 18:26:26;;;;;;;;;;;12.10;99.90;;;;;;6256872;22;19915;-78
2022/10/15 22:26:39;;;;;;;;;;;;;;;;;;;;;
2022/10/15 23:00:31;;;;;;;;;;;;;;;;;;;;;
2022/10/15 23:03:00;;;;;;;;;;;12.40;99.90;;;;;;5954453;24;20215;-70
2022/10/15 23:05:29;;;;;;;;;;;12.40;99.90;;;;;;6017587;23;19954;-74
2022/10/15 23:08:00;;;;;;;;;;;12.40;99.90;;;;;;6072151;23;19949;-74
2022/10/15 23:10:25;;;;;;;;;;;12.40;99.90;;;;;;6143648;23;19911;-73
2022/10/15 23:12:51;;;;;;;;;;;12.40;99.90;;;;;;6216017;23;19955;-72
2022/10/15 23:15:16;;;;;;;;;;;12.40;99.90;;;;;;6190330;23;20238;-75
2022/10/15 23:17:42;;;;;;;;;;;12.40;99.90;;;;;;6190956;23;19920;-72
2022/10/15 23:20:08;;;;;;;;;;;12.40;99.90;;;;;;6191034;23;19916;-73
2022/10/15 23:22:33;;;;;;;;;;;12.40;99.90;;;;;;6190539;23;19915;-73
2022/10/15 23:25:01;;;;;;;;;;;12.40;99.90;;;;;;6166243;23;19916;-73
2022/10/15 23:27:27;;;;;;;;;;;12.40;99.90;;;;;;6191251;23;19919;-74
2022/10/15 23:29:52;;;;;;;;;;;12.30;99.90;;;;;;6190725;23;19973;-74
2022/10/15 23:32:18;;;;;;;;;;;12.30;99.90;;;;;;6190803;23;19916;-73
2022/10/15 23:34:43;;;;;;;;;;;12.50;99.90;;;;;;6190703;23;19915;-75
2022/10/15 23:37:09;;;;;;;;;;;12.20;99.90;;;;;;6190782;23;19916;-73
2022/10/15 23:39:35;;;;;;;;;;;12.20;99.90;;;;;;6190989;23;19922;-74
2022/10/15 23:42:00;;;;;;;;;;;12.20;99.90;;;;;;6190757;23;19982;-74
2022/10/15 23:44:27;;;;;;;;;;;12.10;99.90;;;;;;6190726;23;19916;-73
2022/10/15 23:46:53;;;;;;;;;;;12.10;99.90;;;;;;6190707;23;19966;-74
2022/10/15 23:49:19;;;;;;;;;;;12.10;99.90;;;;;;6190876;23;19916;-73
2022/10/15 23:51:44;;;;;;;;;;;12.10;99.90;;;;;;6190616;23;19923;-74
2022/10/15 23:54:12;;;;;;;;;;;12.00;99.90;;;;;;6190490;23;20270;-73
2022/10/15 23:56:38;;;;;;;;;;;12.10;99.90;;;;;;6190473;23;19915;-73
2022/10/15 23:59:03;;;;;;;;;;;12.00;99.90;;;;;;6217367;23;19942;-74
